Time;durP1;ratioP1;P1;durP2;ratioP2;P2;SDS_P1;SDS_P2;PMS_P1;PMS_P2;Temp;Humidity;BMP_temperature;BMP_pressure;BME280_temperature;BME280_humidity;BME280_pressure;Samples;Min_cycle;Max_cycle;Signal;HPM_P1;HPM_P2
2022/08/31 00:04:36;;;;;;;8.38;6.90;;;15.80;99.90;;;;;;2118742;27;20023;-73
2022/08/31 00:05:47;;;;;;;8.55;7.35;;;15.80;99.90;;;;;;2123157;27;20031;-73
2022/08/31 00:06:49;;;;;;;7.85;7.05;;;15.70;99.90;;;;;;2108183;28;20034;-73
2022/08/31 00:07:50;;;;;;;7.95;6.90;;;15.70;99.90;;;;;;2115722;28;20106;-74
2022/08/31 00:08:51;;;;;;;9.27;7.30;;;15.70;99.90;;;;;;2124134;27;20030;-72
2022/08/31 00:09:53;;;;;;;10.38;7.70;;;15.70;99.90;;;;;;2123274;27;20051;-74
2022/08/31 00:10:54;;;;;;;8.35;7.30;;;15.70;99.90;;;;;;2123584;27;20508;-72
2022/08/31 00:11:55;;;;;;;8.93;7.03;;;15.70;99.90;;;;;;2118042;27;20030;-74
2022/08/31 00:12:56;;;;;;;8.07;7.28;;;15.70;99.90;;;;;;2128111;27;20034;-74
2022/08/31 00:14:00;;;;;;;7.93;6.78;;;15.70;99.90;;;;;;2126010;27;20041;-71
2022/08/31 00:15:00;;;;;;;7.38;6.28;;;15.70;99.90;;;;;;2123906;27;20018;-75
2022/08/31 00:16:01;;;;;;;7.38;6.57;;;15.70;99.90;;;;;;2123838;27;20023;-72
2022/08/31 00:17:02;;;;;;;8.57;6.80;;;15.70;99.90;;;;;;2131034;27;20022;-73
2022/08/31 00:18:03;;;;;;;7.55;6.75;;;15.70;99.90;;;;;;2124938;27;20030;-71
2022/08/31 00:19:05;;;;;;;8.10;6.57;;;15.70;99.90;;;;;;2124025;27;20023;-72
2022/08/31 00:20:08;;;;;;;7.50;6.75;;;15.60;99.90;;;;;;2130429;27;20019;-74
2022/08/31 00:21:09;;;;;;;7.97;6.85;;;15.70;99.90;;;;;;2115688;27;20019;-72
2022/08/31 00:22:10;;;;;;;7.43;6.47;;;15.60;99.90;;;;;;2123395;27;20020;-72
2022/08/31 00:23:13;;;;;;;7.90;7.10;;;15.60;99.90;;;;;;2124424;27;20024;-72
2022/08/31 00:24:14;;;;;;;8.25;6.45;;;15.60;99.90;;;;;;2132490;27;20042;-73
2022/08/31 00:25:15;;;;;;;7.38;6.63;;;15.60;99.90;;;;;;2131967;27;20023;-73
2022/08/31 00:26:16;;;;;;;7.18;6.20;;;15.60;99.90;;;;;;2131403;27;20050;-72
2022/08/31 00:27:17;;;;;;;8.10;6.93;;;15.60;99.90;;;;;;2122912;27;20083;-72
2022/08/31 00:28:18;;;;;;;7.85;6.68;;;15.60;99.90;;;;;;2124000;27;20464;-73
2022/08/31 00:29:22;;;;;;;7.90;6.65;;;15.60;99.90;;;;;;2123401;27;20012;-73
2022/08/31 00:30:30;;;;;;;8.02;6.78;;;15.50;99.90;;;;;;2123375;27;20725;-73
2022/08/31 00:31:31;;;;;;;7.47;6.50;;;15.60;99.90;;;;;;2123408;27;20027;-72
2022/08/31 00:32:31;;;;;;;7.68;6.70;;;15.50;99.90;;;;;;2123122;27;20502;-73
2022/08/31 00:33:34;;;;;;;8.07;6.90;;;15.50;99.90;;;;;;2122935;27;20031;-73
2022/08/31 00:34:35;;;;;;;7.43;6.63;;;15.50;99.90;;;;;;2123183;27;20023;-72
2022/08/31 00:35:40;;;;;;;7.22;6.18;;;15.50;99.90;;;;;;2120321;27;20019;-73
2022/08/31 00:36:41;;;;;;;7.75;6.68;;;15.50;99.90;;;;;;2118621;27;20520;-72
2022/08/31 00:37:42;;;;;;;7.55;6.32;;;15.50;99.90;;;;;;2123028;27;20027;-72
2022/08/31 00:38:43;;;;;;;7.32;6.63;;;15.50;99.90;;;;;;2123656;27;20023;-73
2022/08/31 00:39:44;;;;;;;7.53;6.63;;;15.50;99.90;;;;;;2123295;27;20065;-73
2022/08/31 00:40:46;;;;;;;8.27;6.80;;;15.50;99.90;;;;;;2123129;27;20015;-72
2022/08/31 00:41:46;;;;;;;8.85;7.18;;;15.40;99.90;;;;;;2122851;27;20071;-73
2022/08/31 00:42:47;;;;;;;7.57;6.57;;;15.40;99.90;;;;;;2114435;28;20216;-72
2022/08/31 00:43:51;;;;;;;8.80;6.70;;;15.40;99.90;;;;;;2114841;28;20030;-72
2022/08/31 00:44:52;;;;;;;7.60;6.53;;;15.40;99.90;;;;;;2115297;27;20038;-72
2022/08/31 00:45:52;;;;;;;7.60;6.80;;;15.30;99.90;;;;;;2119817;27;20102;-72
2022/08/31 00:46:53;;;;;;;6.85;6.15;;;15.30;99.90;;;;;;2116945;27;20118;-72
2022/08/31 00:47:54;;;;;;;7.85;6.80;;;15.30;99.90;;;;;;2123201;27;20023;-72
2022/08/31 00:49:10;;;;;;;8.95;6.63;;;15.30;99.90;;;;;;2126343;27;20728;-72
2022/08/31 00:50:14;;;;;;;8.70;6.20;;;15.30;99.90;;;;;;2126572;27;20059;-72
2022/08/31 00:51:16;;;;;;;7.95;6.90;;;15.30;99.90;;;;;;2118364;27;20489;-72
2022/08/31 00:52:24;;;;;;;7.38;6.57;;;15.30;99.90;;;;;;2125339;27;20019;-73
2022/08/31 00:53:25;;;;;;;8.57;6.80;;;15.30;99.90;;;;;;2126110;27;20031;-72
2022/08/31 00:54:32;;;;;;;8.55;6.47;;;15.30;99.90;;;;;;2126870;27;20019;-72
2022/08/31 00:55:35;;;;;;;7.60;6.40;;;15.30;99.90;;;;;;2129571;27;20035;-72
2022/08/31 00:56:38;;;;;;;8.05;6.40;;;15.30;99.90;;;;;;2133950;27;20054;-72
2022/08/31 00:57:42;;;;;;;7.22;6.50;;;15.30;99.90;;;;;;2128761;27;20023;-72
2022/08/31 00:58:44;;;;;;;7.80;6.30;;;15.30;99.90;;;;;;2123248;27;20055;-72
2022/08/31 00:59:47;;;;;;;8.23;6.32;;;15.30;99.90;;;;;;2115086;28;20033;-73
2022/08/31 01:00:48;;;;;;;6.93;6.10;;;15.30;99.90;;;;;;2123512;27;20672;-73
2022/08/31 01:01:49;;;;;;;8.07;5.72;;;15.30;99.90;;;;;;2127963;27;20061;-73
2022/08/31 01:02:50;;;;;;;6.68;5.70;;;15.30;99.90;;;;;;2132224;27;20045;-72
2022/08/31 01:03:52;;;;;;;7.63;6.10;;;15.30;99.90;;;;;;2112182;27;20058;-72
2022/08/31 01:04:53;;;;;;;6.88;5.90;;;15.30;99.90;;;;;;2111861;28;20042;-72
2022/08/31 01:05:53;;;;;;;7.45;6.00;;;15.30;99.90;;;;;;2123443;27;20481;-73
2022/08/31 01:06:55;;;;;;;7.05;6.10;;;15.30;99.90;;;;;;2123084;27;20419;-72
2022/08/31 01:07:57;;;;;;;6.45;5.68;;;15.30;99.90;;;;;;2117453;27;20443;-74
2022/08/31 01:09:04;;;;;;;6.63;5.90;;;15.30;99.90;;;;;;2116386;27;20085;-73
2022/08/31 01:10:05;;;;;;;6.55;5.80;;;15.30;99.90;;;;;;2105538;28;20093;-73
2022/08/31 01:11:06;;;;;;;6.65;5.68;;;15.20;99.90;;;;;;2097453;28;20612;-74
2022/08/31 01:12:08;;;;;;;6.95;5.70;;;15.20;99.90;;;;;;2113902;28;20019;-73
2022/08/31 01:13:11;;;;;;;6.65;5.75;;;15.20;99.90;;;;;;2122264;27;20034;-73
2022/08/31 01:14:13;;;;;;;6.70;5.75;;;15.20;99.90;;;;;;2122649;27;20034;-73
2022/08/31 01:15:14;;;;;;;6.07;5.47;;;15.20;99.90;;;;;;2131273;27;20574;-73
2022/08/31 01:16:21;;;;;;;6.65;5.78;;;15.10;99.90;;;;;;2106233;28;20036;-73
2022/08/31 01:17:22;;;;;;;6.93;5.90;;;15.10;99.90;;;;;;2114902;27;20032;-73
2022/08/31 01:18:24;;;;;;;6.50;5.80;;;15.10;99.90;;;;;;2122336;27;20434;-73
2022/08/31 01:19:36;;;;;;;6.10;5.45;;;15.10;99.90;;;;;;2123471;27;20027;-73
2022/08/31 01:21:15;;;;;;;6.55;5.90;;;15.10;99.90;;;;;;2123713;27;20015;-73
2022/08/31 01:22:43;;;;;;;7.40;6.00;;;15.10;99.90;;;;;;2115183;27;20076;-73
2022/08/31 01:23:45;;;;;;;7.07;6.03;;;15.10;99.90;;;;;;2126768;27;20057;-73
2022/08/31 01:24:47;;;;;;;7.40;6.18;;;15.10;99.90;;;;;;2117691;27;20024;-74
2022/08/31 01:25:50;;;;;;;7.43;6.47;;;15.10;99.90;;;;;;2122801;27;20053;-73
2022/08/31 01:26:52;;;;;;;7.05;6.07;;;15.10;99.90;;;;;;2128982;27;20018;-73
2022/08/31 01:27:54;;;;;;;6.70;6.10;;;15.10;99.90;;;;;;2125748;27;20107;-73
2022/08/31 01:29:00;;;;;;;7.57;6.15;;;15.10;99.90;;;;;;2122293;27;20122;-73
2022/08/31 01:30:04;;;;;;;6.47;5.80;;;15.10;99.90;;;;;;2114737;27;20015;-74
2022/08/31 01:31:14;;;;;;;7.10;6.03;;;15.10;99.90;;;;;;2106305;28;20020;-73
2022/08/31 01:32:15;;;;;;;7.47;5.63;;;15.10;99.90;;;;;;2100026;27;20114;-73
2022/08/31 01:33:16;;;;;;;6.60;5.93;;;15.10;99.90;;;;;;2122567;27;20108;-73
2022/08/31 01:34:17;;;;;;;6.40;5.80;;;15.10;99.90;;;;;;2122611;27;20023;-73
2022/08/31 01:35:18;;;;;;;7.38;6.20;;;15.10;99.90;;;;;;2113915;28;20028;-73
2022/08/31 01:36:19;;;;;;;7.07;6.25;;;15.10;99.90;;;;;;2113879;28;20037;-73
2022/08/31 01:37:20;;;;;;;6.95;6.25;;;15.10;99.90;;;;;;2114349;27;20035;-73
2022/08/31 01:38:22;;;;;;;8.45;6.20;;;15.10;99.90;;;;;;2120946;27;20109;-73
2022/08/31 01:39:23;;;;;;;6.22;5.53;;;15.10;99.90;;;;;;2122267;27;20066;-73
2022/08/31 01:40:30;;;;;;;6.85;6.15;;;15.10;99.90;;;;;;2122442;27;20050;-73
2022/08/31 01:41:31;;;;;;;6.68;5.93;;;15.10;99.90;;;;;;2120847;27;20035;-73
2022/08/31 01:42:32;;;;;;;8.93;6.40;;;15.10;99.90;;;;;;2107831;28;20120;-73
2022/08/31 01:43:34;;;;;;;6.72;6.03;;;15.00;99.90;;;;;;2105230;28;20032;-74
2022/08/31 01:44:34;;;;;;;6.55;5.85;;;15.00;99.90;;;;;;2113903;27;20011;-73
2022/08/31 01:45:35;;;;;;;7.45;6.43;;;15.00;99.90;;;;;;2125286;27;20114;-73
2022/08/31 01:46:37;;;;;;;7.07;6.15;;;15.00;99.90;;;;;;2127786;27;20470;-73
2022/08/31 01:47:39;;;;;;;7.55;6.40;;;15.00;99.90;;;;;;2108991;28;20055;-73
2022/08/31 01:48:44;;;;;;;7.80;6.25;;;15.00;99.90;;;;;;2105874;28;20024;-73
2022/08/31 01:49:47;;;;;;;8.68;6.57;;;15.00;99.90;;;;;;2106260;28;20107;-73
2022/08/31 01:50:49;;;;;;;7.80;6.15;;;14.90;99.90;;;;;;2105448;28;20051;-73
2022/08/31 01:51:52;;;;;;;7.55;6.40;;;14.90;99.90;;;;;;2105395;27;20028;-73
2022/08/31 01:52:53;;;;;;;6.88;6.10;;;14.90;99.90;;;;;;2114123;28;20099;-73
2022/08/31 01:53:54;;;;;;;7.15;6.45;;;14.90;99.90;;;;;;2122616;27;20022;-73
2022/08/31 01:54:55;;;;;;;7.13;6.13;;;14.90;99.90;;;;;;2123189;27;20385;-73
2022/08/31 01:55:56;;;;;;;7.38;6.43;;;14.90;99.90;;;;;;2122422;27;20560;-73
2022/08/31 01:56:57;;;;;;;8.75;6.30;;;14.90;99.90;;;;;;2113834;28;20052;-73
2022/08/31 01:58:12;;;;;;;8.18;6.50;;;14.90;99.90;;;;;;2115829;27;20027;-74
2022/08/31 01:59:19;;;;;;;6.85;6.15;;;14.90;99.90;;;;;;2122563;27;20114;-73
2022/08/31 02:00:40;;;;;;;7.68;6.43;;;14.90;99.90;;;;;;2096235;28;20040;-73
2022/08/31 02:01:44;;;;;;;8.38;6.38;;;14.90;99.90;;;;;;2115530;27;20100;-73
2022/08/31 02:02:53;;;;;;;7.60;6.75;;;14.90;99.90;;;;;;2114174;28;20143;-72
2022/08/31 02:03:54;;;;;;;9.13;7.13;;;14.90;99.90;;;;;;2123454;27;20485;-72
2022/08/31 02:04:55;;;;;;;7.60;6.75;;;14.90;99.90;;;;;;2129767;27;20033;-72
2022/08/31 02:05:57;;;;;;;8.77;6.85;;;14.90;99.90;;;;;;2122089;27;20431;-72
2022/08/31 02:07:00;;;;;;;8.25;7.15;;;14.90;99.90;;;;;;2106976;28;20064;-73
2022/08/31 02:08:06;;;;;;;8.60;7.03;;;14.90;99.90;;;;;;2107362;28;20020;-72
2022/08/31 02:09:07;;;;;;;8.15;7.07;;;14.90;99.90;;;;;;2113503;27;20023;-72
2022/08/31 02:10:09;;;;;;;9.25;7.47;;;14.90;99.90;;;;;;2113897;28;20024;-73
2022/08/31 02:11:10;;;;;;;8.25;6.88;;;14.90;99.90;;;;;;2105552;28;20691;-73
2022/08/31 02:12:11;;;;;;;8.57;7.30;;;14.90;99.90;;;;;;2096570;28;20024;-73
2022/08/31 02:13:12;;;;;;;9.98;7.80;;;14.90;99.90;;;;;;2105341;28;20032;-72
2022/08/31 02:14:14;;;;;;;10.52;8.10;;;14.80;99.90;;;;;;2104881;28;20158;-72
2022/08/31 02:15:15;;;;;;;12.88;7.88;;;14.90;99.90;;;;;;2105323;27;20066;-72
2022/08/31 02:16:16;;;;;;;8.85;7.82;;;14.80;99.90;;;;;;2122032;27;20037;-72
2022/08/31 02:17:17;;;;;;;11.32;8.48;;;14.80;99.90;;;;;;2121765;27;20471;-72
2022/08/31 02:18:18;;;;;;;9.05;7.43;;;14.80;99.90;;;;;;2113198;28;20031;-72
2022/08/31 02:19:19;;;;;;;9.07;7.50;;;14.80;99.90;;;;;;2122012;27;20045;-72
2022/08/31 02:20:20;;;;;;;10.27;7.80;;;14.80;99.90;;;;;;2121915;27;20674;-73
2022/08/31 02:21:22;;;;;;;8.38;6.78;;;14.80;99.90;;;;;;2122026;27;20023;-73
2022/08/31 02:22:22;;;;;;;9.60;7.10;;;14.80;99.90;;;;;;2121581;27;20069;-73
2022/08/31 02:23:23;;;;;;;9.70;7.28;;;14.70;99.90;;;;;;2111076;28;20030;-73
2022/08/31 02:24:24;;;;;;;8.73;6.90;;;14.80;99.90;;;;;;2113507;28;20051;-73
2022/08/31 02:25:25;;;;;;;7.50;6.70;;;14.70;99.90;;;;;;2122853;27;20023;-73
2022/08/31 02:26:26;;;;;;;8.10;6.60;;;14.70;99.90;;;;;;2121888;27;20023;-73
2022/08/31 02:27:26;;;;;;;7.22;6.28;;;14.70;99.90;;;;;;2113695;28;20073;-73
2022/08/31 02:28:27;;;;;;;7.78;6.10;;;14.70;99.90;;;;;;2122047;27;20031;-74
2022/08/31 02:29:29;;;;;;;7.03;6.20;;;14.70;99.90;;;;;;2122095;27;20027;-71
2022/08/31 02:30:29;;;;;;;7.63;6.25;;;14.70;99.90;;;;;;2122049;27;20033;-73
2022/08/31 02:31:32;;;;;;;7.18;6.28;;;14.70;99.90;;;;;;2112866;28;20042;-73
2022/08/31 02:32:34;;;;;;;6.78;6.07;;;14.70;99.90;;;;;;2113021;28;20078;-73
2022/08/31 02:33:34;;;;;;;7.10;6.32;;;14.70;99.90;;;;;;2121314;27;20023;-73
2022/08/31 02:34:39;;;;;;;7.10;6.22;;;14.70;99.90;;;;;;2113134;28;20062;-73
2022/08/31 02:35:42;;;;;;;7.03;6.32;;;14.70;99.90;;;;;;2113404;28;20176;-73
2022/08/31 02:36:46;;;;;;;7.35;5.97;;;14.60;99.90;;;;;;2121459;27;20030;-74
2022/08/31 02:37:47;;;;;;;7.80;6.38;;;14.60;99.90;;;;;;2113191;27;20031;-73
2022/08/31 02:38:50;;;;;;;7.13;6.03;;;14.70;99.90;;;;;;2112939;28;20041;-73
2022/08/31 02:39:52;;;;;;;7.63;6.43;;;14.60;99.90;;;;;;2110453;27;20047;-73
2022/08/31 02:40:54;;;;;;;7.03;6.20;;;14.70;99.90;;;;;;2113060;27;20520;-72
2022/08/31 02:41:55;;;;;;;8.07;6.32;;;14.60;99.90;;;;;;2120882;27;20054;-72
2022/08/31 02:42:56;;;;;;;8.05;6.70;;;14.60;99.90;;;;;;2121315;27;20027;-72
2022/08/31 02:43:59;;;;;;;11.85;7.30;;;14.60;99.90;;;;;;2113156;27;20034;-72
2022/08/31 02:45:01;;;;;;;7.78;6.78;;;14.60;99.90;;;;;;2112860;28;20652;-72
2022/08/31 02:46:02;;;;;;;7.50;6.60;;;14.60;99.90;;;;;;2105585;28;20043;-72
2022/08/31 02:47:09;;;;;;;8.82;6.53;;;14.60;99.90;;;;;;2113182;27;20053;-72
2022/08/31 02:48:25;;;;;;;7.53;6.50;;;14.60;99.90;;;;;;2114413;27;20408;-70
2022/08/31 02:49:25;;;;;;;7.00;6.30;;;14.60;99.90;;;;;;2112638;28;20035;-70
2022/08/31 02:50:26;;;;;;;7.70;6.70;;;14.60;99.90;;;;;;2112736;28;20035;-70
2022/08/31 02:51:27;;;;;;;7.78;6.68;;;14.60;99.90;;;;;;2121419;27;20031;-70
2022/08/31 02:52:28;;;;;;;7.47;6.68;;;14.60;99.90;;;;;;2112099;28;20020;-70
2022/08/31 02:53:28;;;;;;;8.85;6.85;;;14.60;99.90;;;;;;2111415;28;20024;-71
2022/08/31 02:54:29;;;;;;;9.50;6.55;;;14.60;99.90;;;;;;2115021;27;20043;-71
2022/08/31 02:55:30;;;;;;;9.68;6.88;;;14.60;99.90;;;;;;2121136;27;20012;-71
2022/08/31 02:56:30;;;;;;;8.18;6.82;;;14.60;99.90;;;;;;2121306;27;20034;-71
2022/08/31 02:57:33;;;;;;;8.27;7.20;;;14.60;99.90;;;;;;2119763;27;20033;-73
2022/08/31 02:58:35;;;;;;;6.93;6.22;;;14.60;99.90;;;;;;2115931;27;20102;-73
2022/08/31 02:59:36;;;;;;;7.70;6.90;;;14.60;99.90;;;;;;2121485;27;20038;-72
2022/08/31 03:00:37;;;;;;;7.65;6.85;;;14.60;99.90;;;;;;2121581;27;20474;-72
2022/08/31 03:01:38;;;;;;;8.02;7.18;;;14.60;99.90;;;;;;2121526;27;20553;-72
2022/08/31 03:02:42;;;;;;;7.85;6.60;;;14.50;99.90;;;;;;2116787;27;20031;-73
2022/08/31 03:03:43;;;;;;;7.65;6.78;;;14.50;99.90;;;;;;2121819;27;20023;-72
2022/08/31 03:04:44;;;;;;;8.85;6.97;;;14.50;99.90;;;;;;2130131;27;20022;-72
2022/08/31 03:05:48;;;;;;;9.32;7.32;;;14.50;99.90;;;;;;2121907;27;20027;-72
2022/08/31 03:06:50;;;;;;;9.38;7.10;;;14.50;99.90;;;;;;2113318;28;20019;-72
2022/08/31 03:07:52;;;;;;;8.30;6.90;;;14.50;99.90;;;;;;2122061;27;20034;-72
2022/08/31 03:08:52;;;;;;;7.85;6.88;;;14.50;99.90;;;;;;2129951;27;20037;-72
2022/08/31 03:09:53;;;;;;;7.18;6.30;;;14.50;99.90;;;;;;2130066;27;20069;-72
2022/08/31 03:10:54;;;;;;;7.97;6.18;;;14.50;99.90;;;;;;2121419;27;20031;-72
2022/08/31 03:11:54;;;;;;;7.68;6.32;;;14.50;99.90;;;;;;2121099;27;20065;-73
2022/08/31 03:12:55;;;;;;;7.45;6.35;;;14.50;99.90;;;;;;2127425;27;20023;-76
2022/08/31 03:13:57;;;;;;;8.50;7.60;;;14.50;99.90;;;;;;2121976;27;20405;-76
2022/08/31 03:14:58;;;;;;;7.53;6.70;;;14.50;99.90;;;;;;2113148;28;20042;-75
2022/08/31 03:15:59;;;;;;;8.48;6.43;;;14.50;99.90;;;;;;2113379;28;20515;-75
2022/08/31 03:16:59;;;;;;;7.53;6.63;;;14.50;99.90;;;;;;2113442;28;20444;-76
2022/08/31 03:18:00;;;;;;;7.18;6.10;;;14.50;99.90;;;;;;2112658;28;20038;-75
2022/08/31 03:19:01;;;;;;;8.02;6.60;;;14.50;99.90;;;;;;2121559;27;20103;-74
2022/08/31 03:20:05;;;;;;;6.93;6.22;;;14.50;99.90;;;;;;2113619;28;20516;-74
2022/08/31 03:21:06;;;;;;;7.03;6.30;;;14.50;99.90;;;;;;2106158;28;20101;-74
2022/08/31 03:22:06;;;;;;;7.75;5.82;;;14.50;99.90;;;;;;2113022;28;20027;-75
2022/08/31 03:23:08;;;;;;;7.55;6.45;;;14.50;99.90;;;;;;2113422;28;20066;-75
2022/08/31 03:24:09;;;;;;;7.40;6.05;;;14.50;99.90;;;;;;2113137;28;20046;-74
2022/08/31 03:25:10;;;;;;;7.25;6.18;;;14.50;99.90;;;;;;2113109;28;20460;-74
2022/08/31 03:26:11;;;;;;;7.80;6.60;;;14.50;99.90;;;;;;2113506;28;20032;-74
2022/08/31 03:27:12;;;;;;;7.35;6.50;;;14.50;99.90;;;;;;2113942;28;20059;-75
2022/08/31 03:28:13;;;;;;;7.03;6.32;;;14.50;99.90;;;;;;2113383;28;20492;-74
2022/08/31 03:29:18;;;;;;;7.47;6.10;;;14.50;99.90;;;;;;2113613;28;20438;-75
2022/08/31 03:30:28;;;;;;;7.10;6.20;;;14.50;99.90;;;;;;2121830;27;20019;-75
2022/08/31 03:31:36;;;;;;;7.18;5.95;;;14.50;99.90;;;;;;2121743;27;20055;-75
2022/08/31 03:32:38;;;;;;;7.43;6.63;;;14.50;99.90;;;;;;2112953;28;20381;-75
2022/08/31 03:33:39;;;;;;;7.72;6.80;;;14.50;99.90;;;;;;2114364;28;20027;-75
2022/08/31 03:34:40;;;;;;;8.90;7.22;;;14.50;99.90;;;;;;2115166;28;20127;-75
2022/08/31 03:35:42;;;;;;;8.35;7.15;;;14.50;99.90;;;;;;2123876;27;20472;-75
2022/08/31 03:36:43;;;;;;;9.55;7.57;;;14.50;99.90;;;;;;2123817;27;20035;-76
2022/08/31 03:37:44;;;;;;;8.85;7.20;;;14.50;99.90;;;;;;2115238;28;20103;-76
2022/08/31 03:38:45;;;;;;;10.45;7.45;;;14.50;99.90;;;;;;2114957;28;20031;-76
2022/08/31 03:39:47;;;;;;;8.15;7.18;;;14.50;99.90;;;;;;2124061;27;20058;-76
2022/08/31 03:40:49;;;;;;;9.25;7.05;;;14.50;99.90;;;;;;2123989;27;20033;-75
2022/08/31 03:41:50;;;;;;;8.60;7.43;;;14.40;99.90;;;;;;2123352;27;20020;-75
2022/08/31 03:42:52;;;;;;;8.27;7.38;;;14.40;99.90;;;;;;2115049;28;20051;-76
2022/08/31 03:43:53;;;;;;;9.63;7.22;;;14.40;99.90;;;;;;2115358;28;20114;-75
2022/08/31 03:44:54;;;;;;;9.55;7.65;;;14.40;99.90;;;;;;2115380;28;20039;-75
2022/08/31 03:46:00;;;;;;;10.00;8.07;;;14.40;99.90;;;;;;2116049;27;20673;-75
2022/08/31 03:47:01;;;;;;;9.20;7.75;;;14.40;99.90;;;;;;2115223;28;20043;-76
2022/08/31 03:48:05;;;;;;;9.45;7.65;;;14.40;99.90;;;;;;2115004;28;20447;-76
2022/08/31 03:49:06;;;;;;;9.40;7.65;;;14.40;99.90;;;;;;2115133;27;20500;-75
2022/08/31 03:50:09;;;;;;;9.85;7.53;;;14.40;99.90;;;;;;2115161;28;20046;-76
2022/08/31 03:51:30;;;;;;;9.18;7.40;;;14.40;99.90;;;;;;2118669;27;20614;-75
2022/08/31 03:52:32;;;;;;;8.52;7.30;;;14.40;99.90;;;;;;2123437;27;20019;-75
2022/08/31 03:53:42;;;;;;;9.32;7.55;;;14.40;99.90;;;;;;2116826;27;20028;-75
2022/08/31 03:54:49;;;;;;;9.65;7.45;;;14.40;99.90;;;;;;2116109;27;20035;-75
2022/08/31 03:55:50;;;;;;;8.75;7.07;;;14.40;99.90;;;;;;2115281;28;20028;-75
2022/08/31 03:56:51;;;;;;;9.43;7.55;;;14.30;99.90;;;;;;2123796;27;20517;-76
2022/08/31 03:57:52;;;;;;;8.52;6.80;;;14.30;99.90;;;;;;2115139;28;20031;-76
2022/08/31 03:58:53;;;;;;;8.63;6.93;;;14.30;99.90;;;;;;2106540;28;20085;-75
2022/08/31 04:00:23;;;;;;;9.18;7.10;;;14.30;99.90;;;;;;2119261;27;20035;-75
2022/08/31 04:01:29;;;;;;;8.05;6.80;;;14.30;99.90;;;;;;2123331;27;20027;-76
2022/08/31 04:02:58;;;;;;;8.75;7.10;;;14.30;99.90;;;;;;2118480;27;20020;-75
2022/08/31 04:04:05;;;;;;;7.82;6.97;;;14.30;99.90;;;;;;2123882;27;20115;-75
2022/08/31 04:05:18;;;;;;;9.45;7.18;;;14.30;99.90;;;;;;2124209;27;20477;-75
2022/08/31 04:06:40;;;;;;;9.52;7.40;;;14.30;99.90;;;;;;2123873;27;20110;-76
2022/08/31 04:07:59;;;;;;;9.43;7.47;;;14.40;99.90;;;;;;2124328;27;20665;-75
2022/08/31 04:09:38;;;;;;;9.05;7.65;;;14.30;99.90;;;;;;2123073;27;20027;-75
2022/08/31 04:10:59;;;;;;;8.40;7.32;;;14.40;99.90;;;;;;2123693;27;20035;-76
2022/08/31 04:12:29;;;;;;;8.77;7.40;;;14.40;99.90;;;;;;2113876;28;20043;-75
2022/08/31 04:13:42;;;;;;;9.60;7.28;;;14.40;99.90;;;;;;2115172;27;20020;-75
2022/08/31 04:15:02;;;;;;;8.77;7.30;;;14.40;99.90;;;;;;2124081;27;20035;-76
2022/08/31 04:16:21;;;;;;;8.65;7.45;;;14.40;99.90;;;;;;2123643;27;20123;-74
2022/08/31 04:17:33;;;;;;;9.45;7.82;;;14.40;99.90;;;;;;2119260;27;20722;-75
2022/08/31 04:18:54;;;;;;;9.73;7.47;;;14.40;99.90;;;;;;2123287;27;20050;-74
2022/08/31 04:19:55;;;;;;;10.38;8.02;;;14.40;99.90;;;;;;2123581;27;20032;-75
2022/08/31 04:21:19;;;;;;;8.27;7.15;;;14.40;99.90;;;;;;2116261;27;20024;-75
2022/08/31 04:23:10;;;;;;;8.13;7.20;;;14.40;99.90;;;;;;2109244;28;20477;-77
2022/08/31 04:24:18;;;;;;;7.80;7.00;;;14.40;99.90;;;;;;2084547;28;20029;-76
2022/08/31 04:25:22;;;;;;;8.40;6.88;;;14.30;99.90;;;;;;2100598;28;20042;-76
2022/08/31 04:26:27;;;;;;;7.43;6.40;;;14.30;99.90;;;;;;2107444;28;20604;-76
2022/08/31 04:27:28;;;;;;;7.28;6.53;;;14.30;99.90;;;;;;2115943;27;20501;-76
2022/08/31 04:28:28;;;;;;;7.55;6.55;;;14.30;99.90;;;;;;2123837;27;20016;-76
2022/08/31 04:29:29;;;;;;;8.85;7.40;;;14.30;99.90;;;;;;2124359;27;20023;-75
2022/08/31 04:30:31;;;;;;;9.15;6.95;;;14.30;99.90;;;;;;2124191;27;20512;-76
2022/08/31 04:31:35;;;;;;;8.23;7.22;;;14.30;99.90;;;;;;2107371;28;20036;-75
2022/08/31 04:32:36;;;;;;;10.88;7.35;;;14.30;99.90;;;;;;2116653;27;20020;-77
2022/08/31 04:33:38;;;;;;;8.75;7.45;;;14.30;99.90;;;;;;2116304;28;20027;-76
2022/08/31 04:34:38;;;;;;;7.68;6.50;;;14.30;99.90;;;;;;2115522;28;20099;-76
2022/08/31 04:35:43;;;;;;;10.15;7.32;;;14.30;99.90;;;;;;2106815;28;20489;-75
2022/08/31 04:36:44;;;;;;;7.90;6.57;;;14.30;99.90;;;;;;2116069;27;20027;-76
2022/08/31 04:37:46;;;;;;;8.07;6.80;;;14.30;99.90;;;;;;2115215;27;20031;-76
2022/08/31 04:38:49;;;;;;;7.30;6.00;;;14.30;99.90;;;;;;2123512;27;20035;-77
2022/08/31 04:39:50;;;;;;;9.02;6.70;;;14.40;99.90;;;;;;2115126;28;20026;-75
2022/08/31 04:40:50;;;;;;;6.20;5.60;;;14.30;99.90;;;;;;2106334;28;20031;-74
2022/08/31 04:41:51;;;;;;;7.57;6.28;;;14.40;99.90;;;;;;2105998;28;20031;-76
2022/08/31 04:42:53;;;;;;;6.90;6.20;;;14.30;99.90;;;;;;2115176;28;20027;-77
2022/08/31 04:43:58;;;;;;;7.57;6.13;;;14.40;99.90;;;;;;2114992;27;20431;-75
2022/08/31 04:44:59;;;;;;;7.68;6.10;;;14.40;99.90;;;;;;2105778;28;20139;-75
2022/08/31 04:46:13;;;;;;;7.35;6.50;;;14.40;99.90;;;;;;2098476;28;20024;-78
2022/08/31 04:47:24;;;;;;;8.05;6.20;;;14.40;99.90;;;;;;2113103;27;20417;-75
2022/08/31 04:48:36;;;;;;;7.60;6.57;;;14.40;99.90;;;;;;2107750;28;20024;-78
2022/08/31 04:49:37;;;;;;;7.28;6.13;;;14.50;99.90;;;;;;2109589;27;20082;-76
2022/08/31 04:50:38;;;;;;;7.72;6.68;;;14.50;99.90;;;;;;2115843;28;20031;-75
2022/08/31 04:51:45;;;;;;;9.68;7.00;;;14.50;99.90;;;;;;2115661;28;20138;-76
2022/08/31 04:52:49;;;;;;;10.52;6.88;;;14.60;99.90;;;;;;2115952;28;20071;-76
2022/08/31 04:53:54;;;;;;;9.10;6.40;;;14.60;99.90;;;;;;2124780;27;20121;-76
2022/08/31 04:54:55;;;;;;;8.35;6.40;;;14.60;99.90;;;;;;2115877;28;20073;-75
2022/08/31 04:55:56;;;;;;;8.15;6.65;;;14.60;99.90;;;;;;2107618;28;20024;-76
2022/08/31 04:56:58;;;;;;;8.98;6.40;;;14.60;99.90;;;;;;2115442;28;20097;-76
2022/08/31 04:58:04;;;;;;;8.32;6.20;;;14.60;99.90;;;;;;2116280;27;20039;-75
2022/08/31 04:59:07;;;;;;;6.78;6.07;;;14.70;99.90;;;;;;2114380;28;20027;-76
2022/08/31 05:00:20;;;;;;;7.95;6.53;;;14.70;99.90;;;;;;2123763;27;20663;-76
2022/08/31 05:01:44;;;;;;;9.35;7.50;;;14.70;99.90;;;;;;2124188;27;20023;-75
2022/08/31 05:03:03;;;;;;;6.90;6.00;;;14.70;99.90;;;;;;2123601;27;20035;-75
2022/08/31 05:04:04;;;;;;;7.95;5.90;;;14.70;99.90;;;;;;2122632;27;20043;-74
2022/08/31 05:05:06;;;;;;;6.95;5.80;;;14.80;99.90;;;;;;2114001;28;20028;-74
2022/08/31 05:06:15;;;;;;;8.25;6.32;;;14.80;99.90;;;;;;2114016;28;20069;-76
2022/08/31 05:07:15;;;;;;;7.68;6.20;;;14.80;99.90;;;;;;2115243;27;20679;-76
2022/08/31 05:08:18;;;;;;;7.85;6.50;;;14.80;99.90;;;;;;2122414;27;20039;-75
2022/08/31 05:09:21;;;;;;;7.20;5.93;;;14.90;99.90;;;;;;2115015;28;20024;-75
2022/08/31 05:10:23;;;;;;;7.30;6.38;;;14.90;99.90;;;;;;2106613;27;20111;-76
2022/08/31 05:11:25;;;;;;;6.97;5.80;;;14.90;99.90;;;;;;2113911;28;20371;-76
2022/08/31 05:12:25;;;;;;;6.10;5.50;;;15.00;99.90;;;;;;2122597;27;20528;-75
2022/08/31 05:13:26;;;;;;;6.18;5.40;;;15.00;99.90;;;;;;2106672;28;20024;-76
2022/08/31 05:14:27;;;;;;;6.25;5.63;;;15.00;99.90;;;;;;2107059;28;20116;-76
2022/08/31 05:15:41;;;;;;;;;;;15.00;99.90;;;;;;2116273;27;20031;-75
2022/08/31 05:16:43;;;;;;;6.72;5.45;;;15.10;99.90;;;;;;2122602;27;19923;-74
2022/08/31 05:17:43;;;;;;;7.28;5.70;;;15.20;99.90;;;;;;2122602;27;20116;-74
2022/08/31 05:18:46;;;;;;;6.55;5.88;;;15.20;99.90;;;;;;2113804;28;20735;-77
2022/08/31 05:19:51;;;;;;;6.38;5.72;;;15.30;99.90;;;;;;2114559;27;20031;-75
2022/08/31 05:20:51;;;;;;;6.32;5.15;;;15.30;99.90;;;;;;2114126;28;20442;-74
2022/08/31 05:21:52;;;;;;;5.90;5.30;;;15.40;99.90;;;;;;2122194;27;20056;-74
2022/08/31 05:22:54;;;;;;;7.18;5.35;;;15.40;99.90;;;;;;2122325;27;20050;-74
2022/08/31 05:24:01;;;;;;;10.60;7.55;;;15.50;99.90;;;;;;2113755;28;20498;-74
2022/08/31 05:25:05;;;;;;;9.57;6.95;;;15.60;99.90;;;;;;2106729;27;20028;-75
2022/08/31 05:26:07;;;;;;;7.25;6.13;;;15.60;99.90;;;;;;2114524;27;20027;-74
2022/08/31 05:27:08;;;;;;;6.60;5.60;;;15.60;99.90;;;;;;2122447;27;20023;-74
2022/08/31 05:28:09;;;;;;;6.65;5.43;;;15.70;99.90;;;;;;2114146;28;20097;-75
2022/08/31 05:29:14;;;;;;;7.80;5.57;;;15.70;99.90;;;;;;2113908;28;20023;-74
2022/08/31 05:30:16;;;;;;;7.68;5.43;;;15.80;99.90;;;;;;2113799;28;20027;-75
2022/08/31 05:31:28;;;;;;;7.25;5.70;;;15.80;99.90;;;;;;2107000;28;20363;-74
2022/08/31 05:32:30;;;;;;;6.85;5.70;;;15.90;99.90;;;;;;2106511;27;20548;-74
2022/08/31 05:33:33;;;;;;;6.25;5.45;;;15.90;99.90;;;;;;2119486;27;20032;-75
2022/08/31 05:34:35;;;;;;;5.95;5.45;;;15.90;99.90;;;;;;2121972;27;20589;-75
2022/08/31 05:35:36;;;;;;;6.43;5.30;;;16.00;99.90;;;;;;2121985;27;20030;-74
2022/08/31 05:36:38;;;;;;;9.48;7.05;;;16.00;99.90;;;;;;2113664;28;20057;-75